Time;durP1;ratioP1;P1;durP2;ratioP2;P2;SDS_P1;SDS_P2;PMS_P1;PMS_P2;Temp;Humidity;BMP_temperature;BMP_pressure;BME280_temperature;BME280_humidity;BME280_pressure;Samples;Min_cycle;Max_cycle;Signal;HPM_P1;HPM_P2
2023/09/12 00:01:35;;;;;;;12.15;5.70;;;22.80;99.90;;;;;;7394099;19;20154;-78
2023/09/12 00:04:01;;;;;;;11.25;5.45;;;22.70;99.90;;;;;;7388809;19;20160;-77
2023/09/12 00:06:26;;;;;;;11.27;6.07;;;22.80;99.90;;;;;;7390152;19;20153;-77
2023/09/12 00:08:52;;;;;;;8.18;5.45;;;22.80;99.90;;;;;;7389871;19;20145;-77
2023/09/12 00:11:18;;;;;;;8.93;5.45;;;22.50;99.90;;;;;;7390608;19;20143;-77
2023/09/12 00:13:44;;;;;;;12.10;6.03;;;22.40;99.90;;;;;;7389295;19;20143;-77
2023/09/12 00:16:10;;;;;;;9.52;6.22;;;22.30;99.90;;;;;;7393486;19;20312;-77
2023/09/12 00:18:37;;;;;;;7.53;5.88;;;22.30;99.90;;;;;;7389902;19;20476;-76
2023/09/12 00:21:03;;;;;;;10.05;5.50;;;22.20;99.90;;;;;;7388616;19;20130;-77
2023/09/12 00:23:29;;;;;;;7.75;5.30;;;22.30;99.90;;;;;;7389586;19;20131;-76
2023/09/12 00:25:56;;;;;;;8.50;5.32;;;22.60;99.90;;;;;;7389799;19;20572;-77
2023/09/12 00:28:22;;;;;;;9.63;5.70;;;22.20;99.90;;;;;;7389681;19;20130;-77
2023/09/12 00:30:48;;;;;;;8.95;5.68;;;22.10;99.90;;;;;;7389977;19;20205;-77
2023/09/12 00:33:13;;;;;;;8.25;5.57;;;22.30;99.90;;;;;;7390661;19;20134;-77
2023/09/12 00:35:39;;;;;;;8.45;5.85;;;22.40;99.90;;;;;;7389293;19;20161;-77
2023/09/12 00:38:06;;;;;;;10.73;5.82;;;22.40;99.90;;;;;;7388101;19;20596;-77
2023/09/12 00:40:32;;;;;;;11.63;6.22;;;22.50;99.90;;;;;;7392086;19;20134;-77
2023/09/12 00:42:58;;;;;;;12.25;6.10;;;22.70;99.90;;;;;;7389826;19;20151;-77
2023/09/12 00:45:24;;;;;;;6.38;5.20;;;22.70;99.90;;;;;;7391537;19;20155;-77
2023/09/12 00:47:52;;;;;;;9.82;5.82;;;22.80;99.90;;;;;;7384541;19;20145;-77
2023/09/12 00:50:19;;;;;;;8.35;6.07;;;22.80;99.90;;;;;;7392632;19;20134;-77
2023/09/12 00:52:46;;;;;;;8.80;6.15;;;22.90;99.90;;;;;;7390769;19;20243;-77
2023/09/12 00:55:11;;;;;;;8.27;5.90;;;22.80;99.90;;;;;;7388040;19;20150;-77
2023/09/12 00:57:37;;;;;;;7.95;6.47;;;22.70;99.90;;;;;;7388442;19;20146;-77
2023/09/12 01:00:12;;;;;;;6.97;5.40;;;22.70;99.90;;;;;;7391673;19;20608;-77
2023/09/12 01:02:42;;;;;;;10.02;5.78;;;22.50;99.90;;;;;;7390665;19;20141;-77
2023/09/12 01:05:09;;;;;;;11.82;6.30;;;22.40;99.90;;;;;;7389321;19;20182;-77
2023/09/12 01:07:36;;;;;;;7.45;5.70;;;22.60;99.90;;;;;;7389928;19;20210;-77
2023/09/12 01:10:03;;;;;;;10.68;6.25;;;22.30;99.90;;;;;;7390195;19;20134;-77
2023/09/12 01:12:30;;;;;;;12.07;6.80;;;22.10;99.90;;;;;;7389008;19;20135;-76
2023/09/12 01:14:55;;;;;;;12.32;7.30;;;22.00;99.90;;;;;;7388336;19;20623;-77
2023/09/12 01:17:22;;;;;;;11.05;6.75;;;22.00;99.90;;;;;;7389605;19;20142;-76
2023/09/12 01:19:49;;;;;;;15.13;7.40;;;22.20;99.90;;;;;;7388852;19;20142;-77
2023/09/12 01:22:33;;;;;;;10.85;6.28;;;22.40;99.90;;;;;;7390740;19;20199;-78
2023/09/12 01:25:20;;;;;;;9.55;6.45;;;22.50;99.90;;;;;;7389840;19;20137;-76
2023/09/12 01:27:51;;;;;;;8.27;5.35;;;22.50;99.90;;;;;;7387924;19;20572;-77
2023/09/12 01:30:20;;;;;;;10.70;6.93;;;22.10;99.90;;;;;;7392165;19;20139;-76
2023/09/12 01:32:47;;;;;;;12.38;6.57;;;22.30;99.90;;;;;;7388811;19;20135;-77
2023/09/12 01:35:13;;;;;;;10.13;5.78;;;22.40;99.90;;;;;;7386584;19;20127;-77
2023/09/12 01:37:38;;;;;;;7.30;5.93;;;22.30;99.90;;;;;;7387846;19;20147;-77
2023/09/12 01:40:06;;;;;;;9.15;6.28;;;22.00;99.90;;;;;;7386935;19;20137;-76
2023/09/12 01:42:37;;;;;;;6.95;5.20;;;22.00;99.90;;;;;;7388504;19;20138;-76
2023/09/12 01:45:04;;;;;;;7.82;4.93;;;21.80;99.90;;;;;;7387316;19;20587;-77
2023/09/12 01:47:31;;;;;;;9.70;5.60;;;21.70;99.90;;;;;;7388499;19;20609;-76
2023/09/12 01:49:58;;;;;;;9.15;5.47;;;21.50;99.90;;;;;;7385596;19;20130;-76
2023/09/12 01:52:28;;;;;;;11.77;6.18;;;21.50;99.90;;;;;;7389719;19;20178;-77
2023/09/12 01:54:54;;;;;;;7.75;5.38;;;21.60;99.90;;;;;;7387378;19;20142;-77
2023/09/12 01:57:21;;;;;;;9.82;5.88;;;21.90;99.90;;;;;;7388267;19;20163;-77
2023/09/12 01:59:48;;;;;;;8.80;5.63;;;21.90;99.90;;;;;;7385281;19;20138;-77
2023/09/12 02:02:17;;;;;;;10.45;5.93;;;21.70;99.90;;;;;;7387582;19;20146;-77
2023/09/12 02:05:11;;;;;;;9.32;5.75;;;21.60;99.90;;;;;;7386116;19;20155;-78
2023/09/12 02:07:42;;;;;;;11.82;6.97;;;21.40;99.90;;;;;;7388316;19;20596;-77
2023/09/12 02:10:09;;;;;;;9.57;6.55;;;21.30;99.90;;;;;;7390085;19;20131;-77
2023/09/12 02:12:35;;;;;;;10.32;6.28;;;21.70;99.90;;;;;;7389818;19;20155;-77
2023/09/12 02:15:01;;;;;;;7.80;5.40;;;21.80;99.90;;;;;;7386533;19;20146;-77
2023/09/12 02:17:27;;;;;;;10.02;5.18;;;21.50;99.90;;;;;;7387575;19;20137;-77
2023/09/12 02:19:53;;;;;;;8.13;5.70;;;21.40;99.90;;;;;;7386468;19;20548;-77
2023/09/12 02:22:19;;;;;;;9.45;5.82;;;21.30;99.90;;;;;;7382001;19;20309;-78
2023/09/12 02:24:45;;;;;;;9.73;6.32;;;21.30;99.90;;;;;;7387012;19;20260;-77
2023/09/12 02:27:11;;;;;;;13.95;6.93;;;21.50;99.90;;;;;;7386669;19;20130;-77
2023/09/12 02:29:39;;;;;;;8.77;6.20;;;21.60;99.90;;;;;;7387399;19;20588;-78
2023/09/12 02:32:05;;;;;;;8.98;5.72;;;21.80;99.90;;;;;;7388342;19;20141;-78
2023/09/12 02:34:32;;;;;;;7.00;5.30;;;21.70;99.90;;;;;;7385518;19;20139;-78
2023/09/12 02:36:58;;;;;;;8.80;5.22;;;21.70;99.90;;;;;;7387049;19;20210;-77
2023/09/12 02:39:24;;;;;;;6.50;5.45;;;21.40;99.90;;;;;;7384817;19;20143;-78
2023/09/12 02:41:49;;;;;;;11.57;5.95;;;21.30;99.90;;;;;;7385611;19;20143;-77
2023/09/12 02:44:16;;;;;;;10.95;6.82;;;21.40;99.90;;;;;;7387612;19;20461;-77
2023/09/12 02:46:42;;;;;;;8.18;5.90;;;21.40;99.90;;;;;;7382800;19;20150;-78
2023/09/12 02:49:07;;;;;;;7.78;5.43;;;21.10;99.90;;;;;;7387027;19;20164;-78
2023/09/12 02:51:33;;;;;;;8.25;6.15;;;21.30;99.90;;;;;;7386003;19;20468;-78
2023/09/12 02:53:59;;;;;;;8.85;6.38;;;21.60;99.90;;;;;;7385366;19;20574;-76
2023/09/12 02:56:25;;;;;;;11.48;6.20;;;21.80;99.90;;;;;;7385374;19;20142;-78
2023/09/12 02:58:50;;;;;;;9.07;6.35;;;22.00;99.90;;;;;;7383768;19;20185;-77
2023/09/12 03:01:17;;;;;;;10.75;5.93;;;22.10;99.90;;;;;;7385939;19;20150;-77
2023/09/12 03:03:48;;;;;;;12.07;6.40;;;22.10;99.90;;;;;;7391039;19;20511;-78
2023/09/12 03:06:14;;;;;;;10.65;6.35;;;22.10;99.90;;;;;;7392722;19;20150;-77
2023/09/12 03:08:41;;;;;;;13.27;6.53;;;22.10;99.90;;;;;;7393466;19;20155;-77
2023/09/12 03:11:09;;;;;;;9.65;6.63;;;22.10;99.90;;;;;;7389963;19;20154;-78
2023/09/12 03:13:36;;;;;;;10.75;6.65;;;21.80;99.90;;;;;;7391623;19;20152;-79
2023/09/12 03:16:01;;;;;;;12.85;7.07;;;21.70;99.90;;;;;;7394400;19;20206;-77
2023/09/12 03:18:27;;;;;;;10.25;6.70;;;21.70;99.90;;;;;;7393526;19;20153;-77
2023/09/12 03:20:53;;;;;;;8.43;6.70;;;21.80;99.90;;;;;;7392112;19;20127;-78
2023/09/12 03:23:20;;;;;;;9.68;6.43;;;21.90;99.90;;;;;;7392958;19;20142;-77
2023/09/12 03:25:46;;;;;;;10.18;6.28;;;21.70;99.90;;;;;;7392130;19;20177;-78
2023/09/12 03:28:11;;;;;;;9.07;6.15;;;21.40;99.90;;;;;;7391816;19;20143;-77
2023/09/12 03:30:38;;;;;;;6.78;5.78;;;21.30;99.90;;;;;;7391938;19;20468;-76
2023/09/12 03:33:05;;;;;;;9.13;5.70;;;21.10;99.90;;;;;;7391176;19;20658;-78
2023/09/12 03:35:36;;;;;;;8.93;5.80;;;20.90;99.90;;;;;;7390662;19;20213;-77
2023/09/12 03:38:03;;;;;;;10.10;6.30;;;20.90;99.90;;;;;;7391392;19;20942;-78
2023/09/12 03:40:31;;;;;;;7.72;6.53;;;20.90;99.90;;;;;;7390643;19;20146;-78
2023/09/12 03:42:57;;;;;;;8.82;5.88;;;21.10;99.90;;;;;;7390230;19;20142;-78
2023/09/12 03:45:24;;;;;;;7.00;5.07;;;21.10;99.90;;;;;;7390401;19;20163;-77
2023/09/12 03:47:51;;;;;;;7.75;5.32;;;20.80;99.90;;;;;;7392645;19;20186;-78
2023/09/12 03:50:17;;;;;;;8.98;5.90;;;20.50;99.90;;;;;;7392049;19;20127;-77
2023/09/12 03:52:43;;;;;;;8.07;5.20;;;20.20;99.90;;;;;;7390886;19;20496;-77
2023/09/12 03:55:08;;;;;;;8.23;5.40;;;20.20;99.90;;;;;;7389545;19;20137;-77
2023/09/12 03:57:34;;;;;;;6.55;5.40;;;20.70;99.90;;;;;;7390356;19;20135;-77
2023/09/12 04:00:00;;;;;;;6.47;5.57;;;21.00;99.90;;;;;;7390337;19;20140;-78
2023/09/12 04:02:26;;;;;;;9.60;5.78;;;21.10;99.90;;;;;;7389429;19;20147;-77
2023/09/12 04:04:52;;;;;;;7.28;5.78;;;21.10;99.90;;;;;;7388468;19;20596;-77
2023/09/12 04:07:18;;;;;;;8.50;5.97;;;21.10;99.90;;;;;;7390023;19;20194;-76
2023/09/12 04:09:44;;;;;;;9.35;5.80;;;20.80;99.90;;;;;;7391185;19;20496;-77
2023/09/12 04:12:09;;;;;;;11.75;6.53;;;20.70;99.90;;;;;;7389947;19;20130;-78
2023/09/12 04:14:36;;;;;;;9.82;5.80;;;20.80;99.90;;;;;;7389389;19;20466;-77
2023/09/12 04:17:02;;;;;;;6.30;5.40;;;20.80;99.90;;;;;;7389949;19;20143;-77
2023/09/12 04:19:28;;;;;;;9.10;5.53;;;20.70;99.90;;;;;;7387399;19;20130;-77
2023/09/12 04:21:54;;;;;;;6.80;4.97;;;20.80;99.90;;;;;;7391094;19;20603;-77
2023/09/12 04:24:20;;;;;;;11.48;5.70;;;20.60;99.90;;;;;;7389232;19;20131;-77
2023/09/12 04:26:46;;;;;;;7.20;5.65;;;20.70;99.90;;;;;;7389849;19;20127;-77
2023/09/12 04:29:12;;;;;;;8.40;5.28;;;20.90;99.90;;;;;;7390396;19;20139;-77
2023/09/12 04:31:38;;;;;;;9.25;5.50;;;21.00;99.90;;;;;;7391696;19;20198;-78
2023/09/12 04:34:04;;;;;;;9.23;6.07;;;21.10;99.90;;;;;;7390396;19;20131;-78
2023/09/12 04:36:30;;;;;;;10.65;6.13;;;21.20;99.90;;;;;;7389818;19;20135;-77
2023/09/12 04:38:56;;;;;;;8.68;6.20;;;21.40;99.90;;;;;;7388787;19;20482;-78
2023/09/12 04:41:21;;;;;;;10.93;6.38;;;21.30;99.90;;;;;;7388830;19;20259;-77
2023/09/12 04:43:47;;;;;;;9.10;6.15;;;21.40;99.90;;;;;;7387791;19;20142;-78
2023/09/12 04:46:13;;;;;;;7.30;5.32;;;21.50;99.90;;;;;;7388381;19;20139;-78
2023/09/12 04:48:39;;;;;;;10.63;6.32;;;21.40;99.90;;;;;;7390492;19;20145;-78
2023/09/12 04:51:05;;;;;;;8.05;5.78;;;21.10;99.90;;;;;;7391397;19;20144;-78
2023/09/12 04:53:34;;;;;;;10.05;6.72;;;21.10;99.90;;;;;;7390600;19;20251;-77
2023/09/12 04:56:06;;;;;;;15.05;7.38;;;21.00;99.90;;;;;;7388947;19;20230;-78
2023/09/12 04:58:32;;;;;;;9.05;6.68;;;21.30;99.90;;;;;;7388058;19;20151;-77
2023/09/12 05:00:57;;;;;;;10.98;6.85;;;21.40;99.90;;;;;;7388683;19;20184;-77
2023/09/12 05:03:23;;;;;;;8.07;6.32;;;21.50;99.90;;;;;;7389947;19;20135;-77
2023/09/12 05:05:50;;;;;;;11.40;6.55;;;21.60;99.90;;;;;;7389065;19;20172;-77
2023/09/12 05:08:16;;;;;;;9.57;6.85;;;21.60;99.90;;;;;;7387958;19;20134;-78
2023/09/12 05:10:44;;;;;;;8.43;6.32;;;21.60;99.90;;;;;;7388230;19;20155;-76
2023/09/12 05:13:10;;;;;;;11.68;6.55;;;21.50;99.90;;;;;;7388973;19;20486;-78
2023/09/12 05:15:39;;;;;;;9.55;6.93;;;21.50;99.90;;;;;;7390363;19;20155;-77
2023/09/12 05:18:05;;;;;;;9.40;6.50;;;21.50;99.90;;;;;;7389130;19;20150;-77
2023/09/12 05:20:33;;;;;;;9.55;6.50;;;21.60;99.90;;;;;;7388789;19;20206;-78
2023/09/12 05:22:58;;;;;;;10.82;6.72;;;21.60;99.90;;;;;;7388745;19;20229;-77
2023/09/12 05:25:24;;;;;;;7.65;6.32;;;21.60;99.90;;;;;;7390492;19;20167;-76
2023/09/12 05:27:50;;;;;;;9.38;6.38;;;21.60;99.90;;;;;;7388110;19;20142;-77
2023/09/12 05:30:16;;;;;;;9.30;6.38;;;21.60;99.90;;;;;;7388953;19;20162;-77
2023/09/12 05:32:42;;;;;;;11.60;6.45;;;21.60;99.90;;;;;;7388117;19;20162;-77
2023/09/12 05:35:07;;;;;;;8.88;6.28;;;21.60;99.90;;;;;;7388814;19;20130;-78
2023/09/12 05:37:33;;;;;;;8.18;5.97;;;21.40;99.90;;;;;;7388853;19;20127;-78
2023/09/12 05:39:59;;;;;;;10.68;6.43;;;21.40;99.90;;;;;;7389194;19;20167;-78
2023/09/12 05:42:25;;;;;;;8.10;6.15;;;21.60;99.90;;;;;;7385869;19;20143;-81
2023/09/12 05:44:53;;;;;;;9.00;6.80;;;21.70;99.90;;;;;;7386544;19;20506;-79
2023/09/12 05:47:20;;;;;;;8.23;6.63;;;21.70;99.90;;;;;;7388209;19;20135;-79
2023/09/12 05:49:45;;;;;;;8.65;6.45;;;21.80;99.90;;;;;;7389224;19;20146;-79
2023/09/12 05:52:11;;;;;;;8.93;6.50;;;21.90;99.90;;;;;;7389192;19;20131;-78
2023/09/12 05:54:38;;;;;;;10.38;6.35;;;21.90;99.90;;;;;;7389311;19;20143;-78
2023/09/12 05:57:04;;;;;;;10.18;6.25;;;21.90;99.90;;;;;;7388596;19;20759;-78
2023/09/12 05:59:30;;;;;;;9.07;5.45;;;22.00;99.90;;;;;;7385455;19;20583;-78
2023/09/12 06:01:56;;;;;;;11.32;6.38;;;22.00;99.90;;;;;;7389640;19;20141;-78
2023/09/12 06:04:22;;;;;;;11.23;6.35;;;22.10;99.90;;;;;;7385660;19;20249;-78
2023/09/12 06:06:47;;;;;;;12.50;6.35;;;22.10;99.90;;;;;;7384938;19;20238;-79
2023/09/12 06:09:13;;;;;;;10.55;5.95;;;22.10;99.90;;;;;;7386139;19;20150;-79
2023/09/12 06:11:39;;;;;;;11.63;6.75;;;22.10;99.90;;;;;;7388044;19;20142;-77
2023/09/12 06:14:04;;;;;;;10.43;6.32;;;22.10;99.90;;;;;;7387192;19;20139;-78
2023/09/12 06:16:30;;;;;;;8.90;6.13;;;22.20;99.90;;;;;;7386475;19;20187;-79
2023/09/12 06:18:56;;;;;;;9.20;6.35;;;22.20;99.90;;;;;;7386088;19;20619;-78
2023/09/12 06:21:22;;;;;;;7.97;6.53;;;22.20;99.90;;;;;;7386855;19;20138;-79
2023/09/12 06:24:07;;;;;;;9.75;6.25;;;22.20;99.90;;;;;;7386259;19;20909;-78
2023/09/12 06:26:33;;;;;;;7.85;6.40;;;22.20;99.90;;;;;;7386653;19;20154;-78
2023/09/12 06:28:59;;;;;;;8.23;6.55;;;22.30;99.90;;;;;;7387387;19;20161;-79
2023/09/12 06:31:24;;;;;;;10.45;6.32;;;22.30;99.90;;;;;;7387699;19;20730;-78
2023/09/12 06:33:50;;;;;;;9.10;6.28;;;22.30;99.90;;;;;;7385138;19;20135;-78
2023/09/12 06:36:16;;;;;;;10.10;6.60;;;22.20;99.90;;;;;;7386092;19;20234;-78
2023/09/12 06:38:42;;;;;;;11.35;6.35;;;22.30;99.90;;;;;;7384985;19;20138;-78
2023/09/12 06:41:07;;;;;;;9.15;6.32;;;22.20;99.90;;;;;;7389302;19;20130;-79
2023/09/12 06:43:33;;;;;;;8.30;6.70;;;22.10;99.90;;;;;;7385197;19;20193;-77
2023/09/12 06:45:59;;;;;;;10.68;6.75;;;22.00;99.90;;;;;;7386603;19;20147;-78
2023/09/12 06:48:24;;;;;;;11.52;7.15;;;22.00;99.90;;;;;;7388376;19;20126;-78
2023/09/12 06:50:50;;;;;;;9.30;5.95;;;22.10;99.90;;;;;;7387185;19;20157;-78
2023/09/12 06:53:16;;;;;;;10.43;5.90;;;22.10;99.90;;;;;;7389444;19;20840;-78
2023/09/12 06:55:42;;;;;;;10.70;6.35;;;22.10;99.90;;;;;;7385641;19;20135;-78
2023/09/12 06:58:07;;;;;;;9.43;5.95;;;22.20;99.90;;;;;;7384135;19;20235;-80
2023/09/12 07:00:33;;;;;;;9.90;6.57;;;22.30;99.90;;;;;;7384539;19;20146;-79
2023/09/12 07:02:59;;;;;;;10.50;6.00;;;22.30;99.90;;;;;;7383871;19;20139;-79
2023/09/12 07:05:25;;;;;;;9.30;6.60;;;22.30;99.90;;;;;;7384746;19;20229;-79
2023/09/12 07:07:53;;;;;;;13.68;7.00;;;22.40;99.90;;;;;;7384870;19;20158;-78
2023/09/12 07:10:18;;;;;;;10.60;6.63;;;22.60;99.90;;;;;;7386874;19;20162;-78
2023/09/12 07:12:44;;;;;;;10.20;6.25;;;22.60;99.90;;;;;;7387233;19;20138;-78
2023/09/12 07:15:10;;;;;;;12.32;7.40;;;22.70;99.90;;;;;;7384951;19;20150;-79
2023/09/12 07:17:36;;;;;;;10.23;6.38;;;22.70;99.90;;;;;;7385874;19;20130;-78
2023/09/12 07:20:02;;;;;;;8.98;6.43;;;22.80;99.90;;;;;;7384621;19;20179;-80
2023/09/12 07:22:29;;;;;;;8.98;6.35;;;22.80;99.90;;;;;;7385881;19;20135;-78
2023/09/12 07:24:55;;;;;;;10.82;6.43;;;22.80;99.90;;;;;;7385813;19;20139;-79
2023/09/12 07:27:20;;;;;;;10.95;6.32;;;22.80;99.90;;;;;;7384788;19;20158;-78
2023/09/12 07:29:46;;;;;;;10.98;7.07;;;22.90;99.90;;;;;;7384132;19;20237;-79
2023/09/12 07:32:12;;;;;;;10.75;6.53;;;22.70;99.90;;;;;;7387100;19;20142;-78
2023/09/12 07:34:38;;;;;;;9.05;6.25;;;22.70;99.90;;;;;;7384272;19;20127;-79
2023/09/12 07:37:04;;;;;;;9.65;6.32;;;22.80;99.90;;;;;;7384987;19;20134;-77
2023/09/12 07:39:29;;;;;;;10.38;6.20;;;23.00;99.90;;;;;;7383510;19;20143;-78
2023/09/12 07:41:55;;;;;;;11.23;6.55;;;23.20;99.90;;;;;;7384036;19;20221;-78
2023/09/12 07:44:21;;;;;;;11.18;6.65;;;23.20;99.90;;;;;;7384200;19;20467;-79
2023/09/12 07:46:47;;;;;;;11.23;7.25;;;23.40;99.90;;;;;;7382705;19;20162;-80
2023/09/12 07:49:12;;;;;;;11.95;6.82;;;23.40;99.90;;;;;;7390824;19;20163;-81
2023/09/12 07:51:38;;;;;;;10.82;6.70;;;23.50;99.90;;;;;;7393200;19;20135;-80
2023/09/12 07:54:04;;;;;;;9.15;6.90;;;23.60;99.90;;;;;;7391073;19;20161;-78
2023/09/12 07:56:30;;;;;;;8.98;6.63;;;23.80;99.90;;;;;;7391016;19;20145;-80
2023/09/12 07:58:58;;;;;;;12.50;6.63;;;23.90;99.90;;;;;;7387872;19;20831;-78
2023/09/12 08:01:24;;;;;;;12.20;6.50;;;24.00;99.90;;;;;;7391229;19;20608;-79
2023/09/12 08:03:50;;;;;;;12.52;8.13;;;24.10;99.90;;;;;;7388627;19;20150;-78
2023/09/12 08:06:15;;;;;;;9.80;7.63;;;24.20;99.90;;;;;;7392394;19;20158;-78
2023/09/12 08:08:41;;;;;;;11.32;6.53;;;24.40;99.90;;;;;;7389512;19;20127;-78
2023/09/12 08:11:07;;;;;;;9.27;6.93;;;24.50;99.90;;;;;;7389407;19;20135;-79
2023/09/12 08:13:33;;;;;;;10.98;6.63;;;24.70;99.90;;;;;;7388371;19;20174;-77
2023/09/12 08:15:59;;;;;;;11.80;6.97;;;24.70;99.90;;;;;;7388820;19;20186;-78
2023/09/12 08:18:30;;;;;;;9.73;6.22;;;24.60;99.90;;;;;;7389346;19;20595;-77
2023/09/12 08:20:56;;;;;;;9.73;6.32;;;24.70;99.90;;;;;;7392136;19;20198;-78
2023/09/12 08:23:22;;;;;;;11.75;7.07;;;24.90;99.90;;;;;;7389654;19;20269;-78
2023/09/12 08:25:48;;;;;;;13.25;7.03;;;24.80;99.90;;;;;;7388463;19;20820;-78
2023/09/12 08:28:14;;;;;;;9.00;6.18;;;24.70;99.90;;;;;;7390424;19;20146;-79
2023/09/12 08:30:40;;;;;;;9.07;6.65;;;24.70;99.90;;;;;;7390681;19;20390;-79
2023/09/12 08:33:06;;;;;;;10.95;5.95;;;24.60;99.90;;;;;;7390389;19;20142;-80
2023/09/12 08:35:33;;;;;;;7.43;6.03;;;24.60;99.90;;;;;;7388712;19;20577;-79
2023/09/12 08:37:58;;;;;;;9.15;6.10;;;24.60;99.90;;;;;;7389202;19;20514;-79
2023/09/12 08:40:24;;;;;;;12.90;6.70;;;24.60;99.90;;;;;;7388273;19;20138;-78
2023/09/12 08:42:52;;;;;;;9.18;6.10;;;24.60;99.90;;;;;;7389964;19;20211;-78
2023/09/12 08:45:19;;;;;;;12.00;6.93;;;24.70;99.90;;;;;;7389026;19;20139;-78
2023/09/12 08:47:49;;;;;;;12.38;7.15;;;24.90;99.90;;;;;;7391368;19;20142;-79
2023/09/12 08:50:16;;;;;;;8.88;6.55;;;25.30;99.90;;;;;;7392457;19;20210;-81
2023/09/12 08:52:43;;;;;;;8.82;6.70;;;25.50;99.90;;;;;;7390191;19;20153;-79
2023/09/12 08:55:10;;;;;;;11.10;6.43;;;25.70;99.90;;;;;;7390916;19;20565;-78
2023/09/12 08:57:39;;;;;;;9.95;6.72;;;25.80;99.90;;;;;;7388666;19;20218;-79
2023/09/12 09:00:08;;;;;;;10.35;6.10;;;26.00;99.90;;;;;;7386679;19;20137;-80
2023/09/12 09:02:38;;;;;;;8.73;6.07;;;26.10;99.90;;;;;;7388710;19;20190;-79
2023/09/12 09:05:05;;;;;;;9.82;6.22;;;26.20;99.90;;;;;;7386967;19;20220;-79
2023/09/12 09:07:39;;;;;;;8.57;6.60;;;26.30;99.90;;;;;;7387794;19;20165;-79
2023/09/12 09:10:06;;;;;;;8.50;6.70;;;26.30;99.90;;;;;;7390430;19;20150;-79
2023/09/12 09:12:33;;;;;;;10.68;6.38;;;26.30;99.90;;;;;;7390033;19;20179;-79
2023/09/12 09:14:59;;;;;;;11.48;7.03;;;26.20;99.90;;;;;;7387616;19;20145;-80
2023/09/12 09:17:26;;;;;;;8.93;6.32;;;26.20;99.90;;;;;;7389212;19;20150;-79
2023/09/12 09:19:51;;;;;;;9.65;6.20;;;26.30;99.90;;;;;;7385750;19;20195;-82
2023/09/12 09:22:17;;;;;;;8.50;6.55;;;26.30;99.90;;;;;;7390184;19;20134;-81
2023/09/12 09:24:43;;;;;;;10.02;6.35;;;26.30;99.90;;;;;;7388022;19;20580;-82
2023/09/12 09:27:08;;;;;;;10.95;7.13;;;26.30;99.90;;;;;;7388262;19;20134;-80
2023/09/12 09:29:47;;;;;;;7.43;6.60;;;26.40;99.90;;;;;;7389470;19;20175;-80
2023/09/12 09:32:21;;;;;;;11.43;6.95;;;26.40;99.90;;;;;;7389193;19;20153;-79
2023/09/12 09:34:47;;;;;;;10.45;7.15;;;26.30;99.90;;;;;;7389501;19;20222;-78
2023/09/12 09:37:15;;;;;;;8.95;7.45;;;26.40;99.90;;;;;;7387185;19;20171;-79
2023/09/12 09:39:41;;;;;;;9.40;7.00;;;26.40;99.90;;;;;;7386979;19;20140;-79
2023/09/12 09:42:11;;;;;;;11.45;7.75;;;26.40;99.90;;;;;;7389231;19;20135;-78
2023/09/12 09:44:37;;;;;;;9.80;7.22;;;26.50;99.90;;;;;;7387686;19;20167;-81
2023/09/12 09:47:03;;;;;;;8.73;6.80;;;26.70;99.90;;;;;;7391346;19;20135;-81
2023/09/12 09:49:34;;;;;;;8.38;6.65;;;26.80;99.90;;;;;;7390019;19;20591;-79
2023/09/12 09:52:02;;;;;;;14.52;7.25;;;26.90;99.90;;;;;;7388153;19;20143;-83
2023/09/12 09:54:28;;;;;;;9.73;6.97;;;27.00;99.90;;;;;;7388874;19;20214;-81
2023/09/12 09:56:56;;;;;;;10.98;6.68;;;27.10;99.90;;;;;;7389690;19;20151;-80
2023/09/12 09:59:24;;;;;;;10.43;6.35;;;27.10;99.90;;;;;;7388820;19;20847;-81
2023/09/12 10:01:55;;;;;;;11.52;7.40;;;27.10;99.90;;;;;;7388934;19;20138;-81
2023/09/12 10:04:22;;;;;;;10.00;6.72;;;27.20;99.90;;;;;;7387223;19;20178;-81
2023/09/12 10:06:49;;;;;;;8.15;6.43;;;27.20;99.90;;;;;;7389829;19;20469;-80
2023/09/12 10:09:16;;;;;;;7.68;6.10;;;27.20;99.90;;;;;;7389228;19;20135;-81
2023/09/12 10:11:46;;;;;;;9.10;6.68;;;27.20;99.90;;;;;;7387985;19;20146;-79
2023/09/12 10:14:15;;;;;;;10.85;6.82;;;27.30;99.90;;;;;;7387826;19;20142;-80
2023/09/12 10:16:48;;;;;;;11.25;6.95;;;27.40;99.90;;;;;;7386498;19;20137;-81
2023/09/12 10:19:26;;;;;;;11.30;6.97;;;27.40;99.90;;;;;;7385319;19;20147;-80
2023/09/12 10:21:52;;;;;;;15.68;8.40;;;27.70;99.90;;;;;;7388228;19;20150;-80
2023/09/12 10:24:21;;;;;;;13.27;8.77;;;27.80;99.90;;;;;;7386518;19;20151;-79
2023/09/12 10:26:50;;;;;;;9.85;6.93;;;27.90;99.90;;;;;;7386443;19;20166;-81
2023/09/12 10:29:16;;;;;;;13.50;6.55;;;27.90;99.90;;;;;;7387725;19;20146;-79
2023/09/12 10:31:42;;;;;;;21.33;7.22;;;28.00;99.90;;;;;;7388531;19;20227;-79
2023/09/12 10:34:12;;;;;;;7.45;5.80;;;28.10;99.90;;;;;;7387746;19;20143;-79
2023/09/12 10:36:43;;;;;;;14.20;6.63;;;28.00;99.90;;;;;;7388680;19;20150;-81
2023/09/12 10:39:14;;;;;;;10.77;6.63;;;28.10;99.90;;;;;;7385389;19;20134;-80
2023/09/12 10:41:40;;;;;;;8.73;7.38;;;28.10;99.90;;;;;;7385022;19;20146;-80
2023/09/12 10:44:11;;;;;;;7.93;6.03;;;28.00;99.90;;;;;;7386189;19;20188;-80
2023/09/12 10:46:39;;;;;;;9.07;5.85;;;28.00;99.90;;;;;;7385109;19;20146;-80
2023/09/12 10:49:15;;;;;;;12.15;6.78;;;28.10;99.90;;;;;;7387972;19;20575;-80
2023/09/12 10:51:45;;;;;;;12.38;6.65;;;28.20;99.90;;;;;;7386684;19;20419;-81
2023/09/12 10:54:23;;;;;;;12.02;6.68;;;28.40;99.90;;;;;;7386826;19;20161;-80
2023/09/12 10:57:03;;;;;;;9.30;5.95;;;28.50;99.90;;;;;;7386917;19;20612;-80
2023/09/12 10:59:31;;;;;;;7.97;6.38;;;28.50;99.90;;;;;;7385841;19;20507;-78
2023/09/12 11:02:27;;;;;;;12.65;5.70;;;28.30;99.90;;;;;;7385865;19;20158;-83
2023/09/12 11:04:52;;;;;;;8.98;6.53;;;28.30;99.90;;;;;;7383805;19;20163;-80
2023/09/12 11:07:31;;;;;;;8.52;5.90;;;28.30;99.90;;;;;;7385179;19;20134;-82
2023/09/12 11:10:18;;;;;;;7.93;5.68;;;28.30;99.90;;;;;;7386652;19;20151;-81
2023/09/12 11:12:45;;;;;;;7.85;5.53;;;28.40;99.90;;;;;;7383812;19;20231;-81
2023/09/12 11:15:11;;;;;;;11.93;6.70;;;28.50;99.90;;;;;;7385380;19;20606;-82
2023/09/12 11:17:38;;;;;;;10.93;7.05;;;28.60;99.90;;;;;;7384477;19;20149;-79
2023/09/12 11:20:10;;;;;;;9.48;5.95;;;28.80;99.90;;;;;;7383440;19;20127;-79
2023/09/12 11:22:41;;;;;;;6.95;5.60;;;28.80;99.90;;;;;;7390109;19;20506;-80
2023/09/12 11:25:22;;;;;;;7.55;5.50;;;28.80;99.90;;;;;;7392097;19;20147;-81
2023/09/12 11:27:54;;;;;;;9.27;5.97;;;28.80;99.90;;;;;;7392197;19;20160;-81
2023/09/12 11:30:23;;;;;;;9.35;6.63;;;28.80;99.90;;;;;;7393539;19;20543;-79
2023/09/12 11:32:54;;;;;;;12.20;5.75;;;28.80;99.90;;;;;;7389554;19;20151;-80
2023/09/12 11:35:28;;;;;;;9.95;6.05;;;28.80;99.90;;;;;;7392783;19;20131;-79
2023/09/12 11:37:59;;;;;;;13.60;5.95;;;28.80;99.90;;;;;;7389901;19;20131;-81
2023/09/12 11:40:45;;;;;;;8.82;5.65;;;28.80;99.90;;;;;;7391077;19;20484;-81
2023/09/12 11:43:23;;;;;;;10.68;6.47;;;28.90;99.90;;;;;;7387118;19;20174;-80
2023/09/12 11:45:49;;;;;;;9.50;6.38;;;29.00;99.90;;;;;;7390631;19;20163;-80
2023/09/12 11:48:15;;;;;;;11.70;6.88;;;29.10;99.90;;;;;;7392274;19;20138;-80
2023/09/12 11:50:49;;;;;;;16.90;8.82;;;29.20;99.90;;;;;;7391644;19;20205;-80
2023/09/12 11:53:14;;;;;;;9.93;6.53;;;29.30;99.90;;;;;;7394857;19;20134;-79
2023/09/12 11:55:52;;;;;;;9.73;6.15;;;29.30;99.90;;;;;;7391289;19;20138;-81
2023/09/12 11:58:19;;;;;;;9.07;7.18;;;29.40;99.90;;;;;;7393105;19;20137;-81
2023/09/12 12:00:55;;;;;;;8.40;6.25;;;29.40;99.90;;;;;;7392475;19;20131;-79
2023/09/12 12:03:23;;;;;;;7.68;5.93;;;29.50;99.90;;;;;;7392168;19;20852;-82
2023/09/12 12:05:55;;;;;;;8.65;5.50;;;29.60;99.90;;;;;;7392179;19;20662;-81
2023/09/12 12:08:21;;;;;;;7.93;5.60;;;29.70;99.90;;;;;;7393581;19;20144;-82
2023/09/12 12:10:58;;;;;;;10.00;6.53;;;29.90;99.90;;;;;;7392800;19;20147;-81
2023/09/12 12:13:45;;;;;;;7.93;5.57;;;30.00;99.90;;;;;;7393576;19;20160;-82
2023/09/12 12:16:15;;;;;;;11.45;6.43;;;30.00;99.90;;;;;;7391967;19;20131;-83
2023/09/12 12:18:41;;;;;;;7.35;5.60;;;30.00;99.90;;;;;;7390887;19;20194;-81
2023/09/12 12:21:16;;;;;;;7.60;5.57;;;29.90;99.90;;;;;;7393353;19;20151;-83
2023/09/12 12:23:42;;;;;;;7.28;5.72;;;29.80;99.90;;;;;;7390713;19;20627;-81
2023/09/12 12:26:09;;;;;;;6.93;5.35;;;29.80;99.90;;;;;;7391296;19;20142;-80
2023/09/12 12:28:35;;;;;;;10.27;6.78;;;29.80;99.90;;;;;;7389849;19;20238;-80
2023/09/12 12:31:01;;;;;;;6.90;5.30;;;30.00;99.90;;;;;;7392074;19;20139;-81
2023/09/12 12:33:28;;;;;;;8.80;5.50;;;30.00;99.90;;;;;;7388035;19;20148;-81
2023/09/12 12:36:04;;;;;;;6.35;4.97;;;30.00;99.90;;;;;;7391513;19;20607;-79
2023/09/12 12:38:38;;;;;;;7.43;5.35;;;30.00;99.90;;;;;;7388102;19;20669;-79
2023/09/12 12:41:04;;;;;;;10.02;5.30;;;30.00;99.90;;;;;;7390552;19;20143;-81
2023/09/12 12:43:31;;;;;;;9.15;5.35;;;30.10;99.90;;;;;;7390499;19;20260;-81
2023/09/12 12:45:58;;;;;;;8.30;5.20;;;30.40;99.90;;;;;;7390802;19;20158;-81